createdAt,value
2017-06-28T00:00:10.949Z,6.40
2017-06-28T00:02:42.725Z,6.20
2017-06-28T00:05:14.520Z,6.87
2017-06-28T00:07:46.312Z,6.43
2017-06-28T00:10:22.296Z,6.63
2017-06-28T00:12:53.796Z,6.37
2017-06-28T00:15:29.417Z,6.30
2017-06-28T00:18:05.719Z,7.23
2017-06-28T00:20:37.448Z,6.37
2017-06-28T00:23:08.858Z,6.20
2017-06-28T00:25:40.362Z,6.50
2017-06-28T00:28:12.272Z,6.80
2017-06-28T00:30:48.217Z,5.77
2017-06-28T00:33:19.497Z,6.07
2017-06-28T00:35:51.349Z,5.70
2017-06-28T00:38:22.787Z,6.30
2017-06-28T00:40:53.973Z,6.20
2017-06-28T00:43:25.514Z,6.10
2017-06-28T00:45:57.362Z,5.90
2017-06-28T00:48:29.093Z,6.87
2017-06-28T00:51:01.133Z,5.68
2017-06-28T00:53:32.732Z,5.83
2017-06-28T00:56:04.068Z,5.67
2017-06-28T00:58:35.662Z,6.20
2017-06-28T01:01:06.869Z,6.20
2017-06-28T01:03:38.201Z,6.77
2017-06-28T01:06:13.765Z,6.33
2017-06-28T01:08:45.578Z,6.17
2017-06-28T01:11:17.493Z,6.80
2017-06-28T01:13:48.985Z,6.30
2017-06-28T01:16:20.213Z,6.63
2017-06-28T01:18:51.911Z,7.23
2017-06-28T01:21:28.089Z,6.70
2017-06-28T01:23:59.412Z,6.83
2017-06-28T01:26:31.225Z,6.10
2017-06-28T01:29:06.649Z,6.60
2017-06-28T01:31:42.916Z,6.35
2017-06-28T01:34:14.525Z,6.70
2017-06-28T01:36:46.097Z,6.82
2017-06-28T01:39:17.969Z,6.55
2017-06-28T01:41:53.317Z,6.30
2017-06-28T01:44:22.695Z,6.20
2017-06-28T01:47:03.768Z,5.82
2017-06-28T01:49:39.075Z,6.18
2017-06-28T01:52:14.162Z,5.62
2017-06-28T01:54:49.195Z,6.00
2017-06-28T01:57:20.457Z,5.40
2017-06-28T01:59:51.791Z,5.43
2017-06-28T02:02:27.746Z,6.22
2017-06-28T02:04:59.020Z,5.60
2017-06-28T02:07:34.162Z,5.37
2017-06-28T02:10:10.384Z,6.55
2017-06-28T02:12:41.400Z,6.28
2017-06-28T02:15:16.920Z,6.05
2017-06-28T02:17:48.516Z,6.85
2017-06-28T02:20:16.625Z,6.97
2017-06-28T02:22:45.540Z,6.80
2017-06-28T02:25:13.640Z,7.00
2017-06-28T02:27:41.728Z,6.60
2017-06-28T02:30:09.879Z,7.07
2017-06-28T02:32:45.416Z,7.05
2017-06-28T02:35:13.524Z,6.85
2017-06-28T02:37:41.637Z,6.20
2017-06-28T02:40:09.882Z,6.30
2017-06-28T02:42:37.972Z,6.73
2017-06-28T02:45:06.088Z,6.35
2017-06-28T02:47:34.994Z,6.83
2017-06-28T02:50:03.123Z,7.18
2017-06-28T02:52:31.271Z,7.53
2017-06-28T02:54:59.425Z,7.75
2017-06-28T02:57:27.673Z,7.72
2017-06-28T02:59:55.789Z,7.35
2017-06-28T03:02:23.910Z,6.60
2017-06-28T03:04:52.060Z,6.77
2017-06-28T03:07:20.192Z,6.37
2017-06-28T03:09:48.340Z,6.00
2017-06-28T03:12:16.453Z,6.53
2017-06-28T03:14:44.697Z,5.57
2017-06-28T03:17:12.814Z,6.12
2017-06-28T03:19:41.684Z,6.07
2017-06-28T03:22:09.818Z,6.12
2017-06-28T03:24:37.913Z,5.93
2017-06-28T03:27:06.025Z,5.55
2017-06-28T03:29:34.285Z,5.70
2017-06-28T03:32:02.378Z,5.82
2017-06-28T03:34:30.487Z,5.80
2017-06-28T03:36:58.613Z,6.75
2017-06-28T03:39:26.721Z,6.82
2017-06-28T03:41:55.593Z,6.65
2017-06-28T03:44:23.737Z,6.55
2017-06-28T03:46:51.857Z,7.20
2017-06-28T03:49:19.977Z,7.95
2017-06-28T03:51:48.283Z,7.80
2017-06-28T03:54:16.430Z,7.03
2017-06-28T03:56:44.570Z,7.62
2017-06-28T03:59:12.726Z,7.07
2017-06-28T04:01:40.879Z,7.60
2017-06-28T04:04:09.019Z,7.12
2017-06-28T04:06:37.921Z,8.32
2017-06-28T04:09:06.809Z,7.15
2017-06-28T04:11:35.816Z,8.40
2017-06-28T04:14:04.697Z,7.85
2017-06-28T04:16:33.596Z,8.07
2017-06-28T04:19:02.488Z,7.40
2017-06-28T04:21:30.581Z,6.87
2017-06-28T04:23:58.725Z,6.62
2017-06-28T04:26:26.868Z,8.32
2017-06-28T04:28:54.961Z,7.65
2017-06-28T04:31:23.193Z,7.90
2017-06-28T04:33:51.301Z,6.87
2017-06-28T04:36:19.428Z,7.53
2017-06-28T04:38:47.553Z,6.93
2017-06-28T04:41:15.838Z,6.37
2017-06-28T04:43:43.950Z,6.90
2017-06-28T04:46:12.060Z,6.05
2017-06-28T04:48:40.192Z,5.53
2017-06-28T04:51:08.328Z,5.85
2017-06-28T04:53:36.447Z,5.90
2017-06-28T04:56:04.593Z,5.40
2017-06-28T04:58:32.757Z,5.12
2017-06-28T05:01:00.861Z,5.72
2017-06-28T05:03:28.980Z,5.70
2017-06-28T05:05:57.142Z,5.47
2017-06-28T05:08:25.260Z,6.87
2017-06-28T05:10:54.186Z,6.75
2017-06-28T05:13:22.313Z,6.03
2017-06-28T05:15:50.441Z,5.95
2017-06-28T05:18:18.718Z,6.15
2017-06-28T05:20:46.836Z,5.65
2017-06-28T05:23:14.993Z,5.93
2017-06-28T05:25:43.103Z,5.25
2017-06-28T05:28:11.204Z,5.75
2017-06-28T05:30:39.346Z,5.75
2017-06-28T05:33:07.521Z,6.32
2017-06-28T05:35:35.621Z,6.22
2017-06-28T05:38:04.558Z,5.57
2017-06-28T05:40:32.702Z,5.55
2017-06-28T05:43:01.619Z,5.75
2017-06-28T05:45:29.731Z,6.50
2017-06-28T05:47:57.886Z,5.43
2017-06-28T05:50:25.997Z,5.22
2017-06-28T05:52:54.114Z,5.22
2017-06-28T05:55:22.393Z,5.90
2017-06-28T05:57:50.524Z,4.85
2017-06-28T06:09:02.473Z,4.50
2017-06-28T06:11:31.356Z,5.03
2017-06-28T06:13:59.471Z,4.68
2017-06-28T06:16:27.729Z,6.18
2017-06-28T06:18:55.854Z,4.55
2017-06-28T06:21:23.981Z,4.55
2017-06-28T06:23:52.110Z,3.85
2017-06-28T06:26:20.250Z,4.87
2017-06-28T06:28:49.265Z,4.90
2017-06-28T06:31:17.355Z,4.80
2017-06-28T06:33:45.456Z,5.95
2017-06-28T06:36:13.606Z,5.55
2017-06-28T06:38:41.749Z,5.37
2017-06-28T06:41:10.624Z,5.53
2017-06-28T06:43:38.730Z,5.20
2017-06-28T06:46:06.973Z,4.90
2017-06-28T06:48:35.110Z,4.70
2017-06-28T06:51:03.260Z,5.00
2017-06-28T06:53:31.381Z,4.80
2017-06-28T06:55:59.493Z,4.55
2017-06-28T06:58:27.665Z,4.22
2017-06-28T07:00:55.793Z,4.57
2017-06-28T07:03:23.897Z,4.07
2017-06-28T07:05:52.148Z,4.80
2017-06-28T07:08:20.258Z,3.78
2017-06-28T07:10:48.432Z,4.15
2017-06-28T07:13:16.531Z,3.40
2017-06-28T07:15:44.621Z,3.25
2017-06-28T07:18:13.519Z,3.37
2017-06-28T07:20:42.376Z,4.15
2017-06-28T07:23:10.476Z,3.40
2017-06-28T07:25:38.733Z,3.35
2017-06-28T07:28:06.832Z,3.37
2017-06-28T07:30:34.937Z,3.50
2017-06-28T07:33:03.820Z,3.90
2017-06-28T07:35:32.853Z,3.37
2017-06-28T07:38:00.987Z,3.15
2017-06-28T07:40:29.879Z,3.53
2017-06-28T07:42:58.014Z,3.87
2017-06-28T07:45:26.149Z,3.97
2017-06-28T07:47:54.250Z,3.95
2017-06-28T07:50:22.372Z,3.72
2017-06-28T07:52:50.585Z,3.62
2017-06-28T07:55:18.745Z,3.58
2017-06-28T07:57:46.829Z,3.95
2017-06-28T08:00:15.713Z,3.42
2017-06-28T08:02:43.844Z,3.62
2017-06-28T08:05:11.972Z,3.83
2017-06-28T08:07:41.011Z,3.22
2017-06-28T08:10:12.606Z,2.53
2017-06-28T08:12:47.905Z,3.25
2017-06-28T08:15:29.294Z,3.15
2017-06-28T08:18:45.833Z,2.70
2017-06-28T08:21:21.388Z,2.87
2017-06-28T08:23:52.605Z,2.90
2017-06-28T08:26:24.137Z,2.40
2017-06-28T08:28:59.749Z,2.30
2017-06-28T08:31:35.065Z,2.58
2017-06-28T08:34:03.167Z,2.30
2017-06-28T08:36:31.348Z,2.50
2017-06-28T08:38:59.451Z,2.83
2017-06-28T08:41:27.573Z,2.05
2017-06-28T08:43:55.720Z,2.10
2017-06-28T08:46:23.953Z,2.30
2017-06-28T08:48:53.324Z,2.40
2017-06-28T08:51:21.448Z,2.05
2017-06-28T08:53:49.539Z,2.22
2017-06-28T08:56:17.723Z,2.28
2017-06-28T08:58:45.829Z,2.00
2017-06-28T09:01:13.944Z,2.37
2017-06-28T09:03:42.839Z,2.97
2017-06-28T09:06:11.742Z,2.33
2017-06-28T09:08:39.888Z,2.40
2017-06-28T09:11:07.992Z,2.75
2017-06-28T09:13:36.097Z,2.70
2017-06-28T09:16:04.360Z,2.20
2017-06-28T09:18:32.464Z,2.45
2017-06-28T09:21:00.601Z,1.92
2017-06-28T09:23:28.733Z,2.10
2017-06-28T09:25:56.833Z,2.03
2017-06-28T09:28:24.992Z,2.00
2017-06-28T09:30:53.101Z,2.25
2017-06-28T09:33:21.212Z,2.10
2017-06-28T09:35:49.343Z,2.12
2017-06-28T09:38:17.476Z,2.10
2017-06-28T09:40:45.632Z,2.03
2017-06-28T09:43:13.797Z,2.10
2017-06-28T09:45:42.802Z,1.40
2017-06-28T09:48:10.898Z,1.70
2017-06-28T09:50:39.014Z,1.92
2017-06-28T09:53:07.181Z,1.70
2017-06-28T09:55:35.310Z,1.90
2017-06-28T09:58:03.425Z,1.80
2017-06-28T10:00:38.742Z,1.90
2017-06-28T10:03:06.885Z,1.50
2017-06-28T10:05:35.008Z,1.70
2017-06-28T10:08:04.757Z,1.77
2017-06-28T10:10:41.378Z,1.50
2017-06-28T10:13:09.562Z,1.70
2017-06-28T10:15:40.706Z,1.63
2017-06-28T10:18:57.127Z,1.57
2017-06-28T10:21:52.565Z,1.37
2017-06-28T10:24:21.485Z,1.83
2017-06-28T10:27:00.553Z,1.43
2017-06-28T10:29:28.794Z,1.40
2017-06-28T10:32:06.933Z,1.60
2017-06-28T10:34:35.093Z,1.50
2017-06-28T10:37:03.189Z,1.47
2017-06-28T10:39:31.281Z,1.57
2017-06-28T10:41:59.529Z,1.63
2017-06-28T10:44:27.658Z,1.50
2017-06-28T10:46:56.509Z,1.40
2017-06-28T10:49:24.648Z,1.33
2017-06-28T10:51:52.766Z,1.60
2017-06-28T10:54:33.712Z,1.60
2017-06-28T10:57:01.835Z,1.53
2017-06-28T10:59:29.937Z,1.70
2017-06-28T11:01:58.950Z,1.40
2017-06-28T11:07:49.892Z,1.80
2017-06-28T11:10:17.989Z,1.63
2017-06-28T11:12:46.124Z,1.40
2017-06-28T11:15:17.845Z,1.60
2017-06-28T11:17:49.129Z,2.10
2017-06-28T11:20:17.235Z,1.90
2017-06-28T11:22:54.333Z,1.33
2017-06-28T11:25:22.442Z,1.60
2017-06-28T11:27:50.540Z,1.70
2017-06-28T11:30:18.661Z,1.57
2017-06-28T11:32:53.867Z,1.80
2017-06-28T11:35:21.994Z,1.60
2017-06-28T11:37:50.915Z,1.60
2017-06-28T11:40:19.763Z,1.67
2017-06-28T11:42:48.013Z,1.60
2017-06-28T11:45:16.163Z,1.47
2017-06-28T11:47:44.255Z,1.77
2017-06-28T11:50:20.029Z,1.80
2017-06-28T11:52:51.636Z,1.70
2017-06-28T11:55:23.481Z,1.80
2017-06-28T11:57:54.616Z,1.83
2017-06-28T12:00:30.170Z,1.70
2017-06-28T12:03:02.112Z,1.70
2017-06-28T12:05:33.622Z,1.90
2017-06-28T12:08:09.289Z,1.40
2017-06-28T12:10:45.129Z,1.40
2017-06-28T12:13:20.938Z,1.80
2017-06-28T12:15:52.460Z,1.50
2017-06-28T12:18:27.481Z,1.47
2017-06-28T12:20:58.512Z,1.93
2017-06-28T12:23:28.672Z,1.80
2017-06-28T12:26:04.306Z,2.00
2017-06-28T12:32:00.684Z,1.73
2017-06-28T12:34:36.648Z,1.70
2017-06-28T12:37:11.648Z,1.70
2017-06-28T12:39:44.763Z,1.70
2017-06-28T12:42:20.164Z,1.80
2017-06-28T12:44:55.279Z,1.83
2017-06-28T12:47:26.689Z,1.40
2017-06-28T12:50:02.181Z,1.80
2017-06-28T12:52:33.773Z,1.47
2017-06-28T12:55:20.810Z,1.43
2017-06-28T12:57:52.040Z,1.57
2017-06-28T13:00:27.184Z,1.60
2017-06-28T13:03:10.930Z,1.60
2017-06-28T13:05:42.265Z,1.90
2017-06-28T13:08:13.831Z,1.63
2017-06-28T13:10:48.929Z,1.90
2017-06-28T13:13:20.300Z,1.60
2017-06-28T13:15:55.735Z,1.60
2017-06-28T13:18:30.861Z,1.70
2017-06-28T13:21:02.043Z,1.93
2017-06-28T13:23:55.091Z,1.77
2017-06-28T13:26:23.958Z,1.93
2017-06-28T13:28:55.563Z,1.90
2017-06-28T13:31:26.880Z,1.70
2017-06-28T13:33:54.981Z,1.70
2017-06-28T13:36:23.114Z,1.90
2017-06-28T13:38:54.671Z,1.80
2017-06-28T13:41:25.815Z,1.73
2017-06-28T13:43:54.067Z,1.70
2017-06-28T13:46:22.177Z,1.47
2017-06-28T13:48:50.326Z,1.63
2017-06-28T13:51:18.416Z,1.60
2017-06-28T13:53:46.513Z,1.60
2017-06-28T13:56:14.654Z,1.80
2017-06-28T13:58:42.757Z,1.70
2017-06-28T14:01:11.022Z,1.67
2017-06-28T14:03:39.098Z,1.40
2017-06-28T14:06:10.953Z,1.60
2017-06-28T14:08:39.049Z,1.53
2017-06-28T14:11:07.172Z,1.40
2017-06-28T14:14:06.915Z,1.60
2017-06-28T14:16:35.024Z,1.60
2017-06-28T14:19:03.281Z,1.57
2017-06-28T14:21:38.813Z,1.33
2017-06-28T14:24:06.943Z,1.73
2017-06-28T14:26:35.821Z,1.77
2017-06-28T14:29:03.941Z,1.53
2017-06-28T14:31:39.088Z,1.70
2017-06-28T14:34:10.933Z,1.40
2017-06-28T14:36:48.094Z,1.50
2017-06-28T14:39:23.828Z,1.50
2017-06-28T14:41:55.139Z,1.50
2017-06-28T14:44:23.222Z,1.77
2017-06-28T14:46:51.354Z,1.67
2017-06-28T14:49:19.484Z,1.70
2017-06-28T14:51:47.605Z,1.53
2017-06-28T14:54:15.825Z,1.50
2017-06-28T14:56:43.928Z,2.07
2017-06-28T14:59:12.052Z,1.30
2017-06-28T15:01:40.929Z,1.47
2017-06-28T15:04:09.062Z,1.53
2017-06-28T15:06:37.172Z,1.30
2017-06-28T15:09:05.424Z,1.60
2017-06-28T15:11:33.537Z,1.60
2017-06-28T15:14:01.645Z,1.33
2017-06-28T15:16:29.800Z,1.77
2017-06-28T15:18:57.877Z,1.40
2017-06-28T15:21:26.784Z,1.30
2017-06-28T15:23:55.652Z,1.57
2017-06-28T15:26:23.745Z,1.40
2017-06-28T15:28:52.790Z,1.47
2017-06-28T15:31:28.374Z,1.30
2017-06-28T15:34:04.197Z,1.50
2017-06-28T15:36:32.356Z,1.50
2017-06-28T15:39:03.756Z,1.63
2017-06-28T15:41:31.866Z,1.53
2017-06-28T15:44:00.768Z,1.70
2017-06-28T15:46:28.862Z,1.27
2017-06-28T15:48:57.103Z,1.70
2017-06-28T15:51:25.208Z,1.40
2017-06-28T15:53:56.610Z,1.27
2017-06-28T15:56:32.051Z,1.50
2017-06-28T15:59:00.148Z,1.50
2017-06-28T16:01:30.233Z,1.47
2017-06-28T16:04:01.696Z,1.30
2017-06-28T16:06:33.476Z,1.60
2017-06-28T16:09:08.537Z,1.53
2017-06-28T16:11:40.168Z,1.70
2017-06-28T16:14:11.202Z,1.80
2017-06-28T16:16:46.915Z,1.57
2017-06-28T16:19:18.275Z,1.50
2017-06-28T16:21:49.569Z,1.40
2017-06-28T16:24:24.857Z,1.80
2017-06-28T16:26:56.360Z,1.40
2017-06-28T16:29:31.471Z,1.47
2017-06-28T16:32:06.898Z,1.40
2017-06-28T16:34:42.258Z,1.50
2017-06-28T16:37:17.412Z,1.30
2017-06-28T16:39:52.608Z,1.50
2017-06-28T16:42:23.825Z,1.50
2017-06-28T16:44:55.317Z,1.30
2017-06-28T16:47:26.972Z,1.60
2017-06-28T16:49:58.670Z,1.40
2017-06-28T16:52:30.387Z,1.73
2017-06-28T16:55:02.033Z,1.90
2017-06-28T16:57:37.375Z,1.80
2017-06-28T17:00:08.580Z,2.70
2017-06-28T17:02:43.717Z,1.87
2017-06-28T17:05:19.138Z,1.80
2017-06-28T17:07:54.324Z,2.07
2017-06-28T17:10:29.478Z,1.80
2017-06-28T17:13:01.056Z,2.30
2017-06-28T17:15:32.595Z,2.00
2017-06-28T17:18:03.806Z,2.10
2017-06-28T17:20:36.728Z,2.10
2017-06-28T17:23:08.245Z,1.97
2017-06-28T17:29:05.437Z,1.97
2017-06-28T17:31:36.818Z,1.97
2017-06-28T17:34:08.727Z,2.13
2017-06-28T17:36:40.117Z,1.70
2017-06-28T17:39:16.478Z,1.87
2017-06-28T17:41:48.398Z,1.70
2017-06-28T17:44:23.615Z,1.90
2017-06-28T17:47:00.292Z,1.83
2017-06-28T17:49:32.303Z,1.80
2017-06-28T17:52:04.179Z,1.80
2017-06-28T17:54:36.095Z,1.90
2017-06-28T17:57:07.961Z,1.80
2017-06-28T17:59:43.260Z,2.03
2017-06-28T18:02:14.690Z,1.70
2017-06-28T18:04:50.842Z,1.93
2017-06-28T18:07:23.044Z,1.67
2017-06-28T18:09:57.145Z,1.90
2017-06-28T18:12:32.984Z,2.30
2017-06-28T18:15:04.209Z,2.03
2017-06-28T18:17:39.334Z,2.30
2017-06-28T18:20:15.445Z,2.50
2017-06-28T18:22:51.969Z,2.47
2017-06-28T18:25:23.425Z,2.40
2017-06-28T18:27:55.177Z,2.07
2017-06-28T18:30:30.422Z,1.87
2017-06-28T18:33:02.182Z,1.93
2017-06-28T18:35:37.426Z,2.50
2017-06-28T18:38:08.813Z,2.10
2017-06-28T18:40:40.113Z,2.40
2017-06-28T18:43:11.783Z,1.90
2017-06-28T18:45:46.864Z,1.93
2017-06-28T18:48:18.618Z,2.07
2017-06-28T18:50:50.361Z,2.23
2017-06-28T18:53:25.423Z,2.43
2017-06-28T18:55:58.743Z,2.57
2017-06-28T18:58:30.036Z,1.90
2017-06-28T19:01:05.096Z,1.93
2017-06-28T19:03:36.501Z,1.87
2017-06-28T19:06:12.425Z,1.90
2017-06-28T19:08:47.495Z,1.70
2017-06-28T19:11:18.828Z,1.93
2017-06-28T19:13:50.097Z,2.10
2017-06-28T19:16:25.257Z,2.33
2017-06-28T19:19:01.555Z,1.90
2017-06-28T19:21:32.893Z,1.63
2017-06-28T19:24:08.590Z,2.00
2017-06-28T19:26:39.913Z,1.90
2017-06-28T19:29:11.460Z,2.00
2017-06-28T19:31:46.647Z,2.20
2017-06-28T19:34:18.069Z,1.80
2017-06-28T19:36:50.133Z,2.07
2017-06-28T19:39:25.676Z,2.13
2017-06-28T19:42:04.583Z,2.17
2017-06-28T19:45:11.329Z,3.23
2017-06-28T19:47:47.324Z,4.60
2017-06-28T19:50:18.983Z,3.50
2017-06-28T19:52:54.167Z,2.70
2017-06-28T19:55:29.834Z,2.77
2017-06-28T19:58:04.953Z,2.83
2017-06-28T20:00:36.301Z,3.00
2017-06-28T20:03:11.549Z,3.00
2017-06-28T20:05:43.158Z,4.00
2017-06-28T20:08:11.271Z,3.10
2017-06-28T20:10:39.388Z,3.47
2017-06-28T20:13:07.529Z,3.00
2017-06-28T20:15:35.777Z,2.70
2017-06-28T20:18:12.401Z,3.00
2017-06-28T20:20:40.533Z,3.00
2017-06-28T20:23:12.246Z,3.10
2017-06-28T20:25:43.357Z,3.03
2017-06-28T20:28:11.496Z,3.23
2017-06-28T20:30:48.802Z,3.07
2017-06-28T20:33:20.459Z,3.80
2017-06-28T20:35:51.447Z,3.13
2017-06-28T20:38:23.016Z,3.03
2017-06-28T20:40:54.019Z,3.55
2017-06-28T20:43:29.660Z,3.70
2017-06-28T20:46:04.663Z,3.62
2017-06-28T20:48:36.129Z,4.10
2017-06-28T20:51:11.341Z,3.67
2017-06-28T20:53:43.034Z,3.40
2017-06-28T20:56:18.765Z,4.23
2017-06-28T20:58:53.947Z,3.67
2017-06-28T21:01:25.710Z,3.20
2017-06-28T21:03:56.926Z,3.20
2017-06-28T21:06:32.567Z,3.50
2017-06-28T21:09:03.878Z,3.60
2017-06-28T21:11:35.174Z,3.55
2017-06-28T21:14:11.024Z,3.95
2017-06-28T21:16:46.555Z,4.40
2017-06-28T21:19:22.514Z,4.00
2017-06-28T21:21:57.520Z,4.60
2017-06-28T21:24:29.461Z,3.87
2017-06-28T21:27:05.060Z,3.83
2017-06-28T21:29:36.417Z,3.83
2017-06-28T21:32:12.527Z,3.58
2017-06-28T21:34:43.741Z,3.75
2017-06-28T21:37:15.821Z,3.10
2017-06-28T21:39:47.519Z,2.60
2017-06-28T21:42:19.185Z,2.30
2017-06-28T21:44:54.623Z,2.40
2017-06-28T21:47:29.754Z,2.53
2017-06-28T21:50:05.362Z,2.28
2017-06-28T21:52:36.601Z,2.55
2017-06-28T21:55:11.788Z,2.30
2017-06-28T21:57:44.930Z,2.20
2017-06-28T22:00:16.868Z,2.65
2017-06-28T22:02:48.500Z,2.20
2017-06-28T22:05:24.096Z,2.20
2017-06-28T22:07:59.724Z,2.65
2017-06-28T22:10:35.355Z,2.45
2017-06-28T22:13:06.973Z,2.37
2017-06-28T22:15:38.697Z,2.35
2017-06-28T22:18:10.604Z,1.92
2017-06-28T22:20:45.958Z,1.90
2017-06-28T22:23:14.074Z,2.25
2017-06-28T22:25:45.218Z,2.42
2017-06-28T22:28:20.920Z,2.28
2017-06-28T22:30:51.972Z,2.47
2017-06-28T22:33:27.511Z,2.40
2017-06-28T22:36:02.873Z,2.53
2017-06-28T22:38:39.822Z,2.42
2017-06-28T22:41:15.425Z,2.10
2017-06-28T22:43:51.050Z,2.45
2017-06-28T22:46:20.965Z,2.05
2017-06-28T22:48:49.069Z,2.20
2017-06-28T22:51:24.548Z,2.65
2017-06-28T22:54:00.441Z,2.37
2017-06-28T22:56:32.292Z,2.58
2017-06-28T22:59:00.385Z,2.35
2017-06-28T23:01:35.740Z,3.00
2017-06-28T23:04:11.158Z,3.25
2017-06-28T23:06:46.712Z,2.80
2017-06-28T23:09:14.810Z,3.25
2017-06-28T23:11:50.161Z,3.22
2017-06-28T23:14:18.301Z,3.20
2017-06-28T23:16:46.408Z,3.55
2017-06-28T23:19:14.547Z,3.00
2017-06-28T23:21:42.648Z,3.60
2017-06-28T23:24:18.044Z,2.97
2017-06-28T23:26:49.692Z,3.00
2017-06-28T23:29:21.308Z,3.15
2017-06-28T23:31:53.245Z,2.40
2017-06-28T23:34:25.182Z,2.30
2017-06-28T23:37:00.660Z,2.75
2017-06-28T23:39:28.762Z,2.58
2017-06-28T23:41:56.889Z,1.92
2017-06-28T23:44:25.136Z,2.60
2017-06-28T23:46:53.237Z,2.37
2017-06-28T23:49:22.246Z,2.33
2017-06-28T23:51:51.137Z,2.25
2017-06-28T23:54:19.274Z,2.00
2017-06-28T23:57:02.344Z,2.25
2017-06-28T23:59:30.479Z,2.00
